Time;durP1;ratioP1;P1;durP2;ratioP2;P2;SDS_P1;SDS_P2;PMS_P1;PMS_P2;Temp;Humidity;BMP_temperature;BMP_pressure;BME280_temperature;BME280_humidity;BME280_pressure;Samples;Min_cycle;Max_cycle;Signal;HPM_P1;HPM_P2
2023/04/25 00:00:01;;;;;;;5.65;4.53;;;13.40;99.90;;;;;;5117487;28;20030;-69
2023/04/25 00:02:28;;;;;;;8.80;5.18;;;13.30;99.90;;;;;;5098938;28;20073;-69
2023/04/25 00:04:54;;;;;;;9.65;5.18;;;13.40;99.90;;;;;;5116892;28;20391;-69
2023/04/25 00:07:19;;;;;;;6.18;5.43;;;13.40;99.90;;;;;;5099027;28;20052;-69
2023/04/25 00:09:45;;;;;;;13.02;5.28;;;13.40;99.90;;;;;;5117478;28;20018;-69
2023/04/25 00:12:11;;;;;;;5.63;4.18;;;13.40;99.90;;;;;;5117436;28;20048;-69
2023/04/25 00:14:36;;;;;;;6.40;5.28;;;13.40;99.90;;;;;;5098892;28;20023;-69
2023/04/25 00:17:02;;;;;;;6.47;4.32;;;13.40;99.90;;;;;;5117389;28;20098;-69
2023/04/25 00:19:28;;;;;;;10.23;4.50;;;13.40;99.90;;;;;;5116654;28;20399;-69
2023/04/25 00:21:55;;;;;;;7.45;5.15;;;13.50;99.90;;;;;;5116746;28;20035;-69
2023/04/25 00:24:21;;;;;;;6.93;4.25;;;13.50;99.90;;;;;;5117244;28;20383;-69
2023/04/25 00:26:47;;;;;;;9.35;5.32;;;13.50;99.90;;;;;;5117258;28;20019;-69
2023/04/25 00:29:13;;;;;;;9.15;4.57;;;13.50;99.90;;;;;;5117432;28;20020;-69
2023/04/25 00:31:38;;;;;;;9.35;4.82;;;13.50;99.90;;;;;;5117121;28;20034;-69
2023/04/25 00:34:04;;;;;;;7.28;4.50;;;13.50;99.90;;;;;;5098676;28;20032;-69
2023/04/25 00:36:30;;;;;;;8.60;5.53;;;13.50;99.90;;;;;;5098812;28;20061;-69
2023/04/25 00:38:56;;;;;;;7.38;4.55;;;13.50;99.90;;;;;;5117245;28;20094;-69
2023/04/25 00:41:22;;;;;;;7.93;4.80;;;13.60;99.90;;;;;;5117176;28;20058;-69
2023/04/25 00:43:49;;;;;;;5.68;3.42;;;13.60;99.90;;;;;;5099266;28;20124;-69
2023/04/25 00:46:14;;;;;;;4.75;3.38;;;13.60;99.90;;;;;;5117106;28;20028;-69
2023/04/25 00:48:40;;;;;;;5.53;3.85;;;13.60;99.90;;;;;;5116871;28;20027;-69
2023/04/25 00:51:06;;;;;;;6.18;3.65;;;13.60;99.90;;;;;;5116966;28;20467;-69
2023/04/25 00:53:32;;;;;;;6.63;3.67;;;13.60;99.90;;;;;;5115890;28;20019;-69
2023/04/25 00:55:58;;;;;;;5.55;3.20;;;13.60;99.90;;;;;;5116852;28;20084;-69
2023/04/25 00:58:24;;;;;;;5.97;3.33;;;13.60;99.90;;;;;;5119957;28;20027;-69
2023/04/25 01:00:51;;;;;;;5.85;2.63;;;13.60;99.90;;;;;;5120996;28;20433;-69
2023/04/25 01:03:19;;;;;;;4.72;2.58;;;13.70;99.90;;;;;;5101477;28;20031;-69
2023/04/25 01:05:46;;;;;;;6.43;2.90;;;13.70;99.90;;;;;;5120427;28;20023;-69
2023/04/25 01:08:13;;;;;;;8.23;2.80;;;13.70;99.90;;;;;;5120558;28;20016;-69
2023/04/25 01:10:39;;;;;;;2.63;2.25;;;13.70;99.90;;;;;;5119850;28;20030;-69
2023/04/25 01:13:05;;;;;;;3.35;2.35;;;13.70;99.90;;;;;;5120696;28;20016;-69
2023/04/25 01:15:30;;;;;;;2.30;2.10;;;13.70;99.90;;;;;;5121053;28;20038;-68
2023/04/25 01:17:58;;;;;;;3.28;2.20;;;13.70;99.90;;;;;;5120675;28;20023;-69
2023/04/25 01:20:24;;;;;;;4.20;2.00;;;13.70;99.90;;;;;;5119951;28;20130;-68
2023/04/25 01:22:53;;;;;;;2.30;1.92;;;13.70;99.90;;;;;;5120434;28;20046;-69
2023/04/25 01:25:20;;;;;;;3.35;2.10;;;13.70;99.90;;;;;;5120492;28;20072;-69
2023/04/25 01:27:46;;;;;;;2.78;1.90;;;13.70;99.90;;;;;;5120542;28;20484;-69
2023/04/25 01:30:12;;;;;;;3.85;1.90;;;13.70;99.90;;;;;;5120535;28;20433;-69
2023/04/25 01:32:39;;;;;;;2.45;2.00;;;13.70;99.90;;;;;;5101788;28;20016;-69
2023/04/25 01:35:09;;;;;;;2.88;1.85;;;13.70;99.90;;;;;;5119994;28;20491;-69
2023/04/25 01:37:37;;;;;;;5.45;1.95;;;13.70;99.90;;;;;;5120193;28;20027;-69
2023/04/25 01:40:05;;;;;;;2.03;1.75;;;13.70;99.90;;;;;;5101861;28;20024;-69
2023/04/25 01:42:31;;;;;;;1.70;1.60;;;13.70;99.90;;;;;;5120109;28;20190;-69
2023/04/25 01:44:57;;;;;;;2.00;1.70;;;13.60;99.90;;;;;;5101697;28;20027;-69
2023/04/25 01:47:23;;;;;;;3.47;1.65;;;13.60;99.90;;;;;;5120018;28;20091;-69
2023/04/25 01:49:48;;;;;;;2.70;1.70;;;13.60;99.90;;;;;;5119727;28;20030;-69
2023/04/25 01:52:14;;;;;;;2.10;1.90;;;13.60;99.90;;;;;;5120006;28;20204;-71
2023/04/25 01:54:43;;;;;;;1.60;1.50;;;13.60;99.90;;;;;;5119897;28;20031;-69
2023/04/25 01:57:09;;;;;;;2.20;1.73;;;13.60;99.90;;;;;;5119828;28;20023;-69
2023/04/25 01:59:36;;;;;;;1.67;1.58;;;13.60;99.90;;;;;;5119858;28;20031;-69
2023/04/25 02:02:03;;;;;;;1.52;1.42;;;13.60;99.90;;;;;;5119717;28;20020;-69
2023/04/25 02:04:29;;;;;;;3.25;2.05;;;13.60;99.90;;;;;;5100978;28;20055;-69
2023/04/25 02:06:55;;;;;;;1.50;1.40;;;13.60;99.90;;;;;;5119725;28;20068;-69
2023/04/25 02:09:21;;;;;;;1.80;1.70;;;13.60;99.90;;;;;;5119335;28;20028;-69
2023/04/25 02:11:47;;;;;;;1.40;1.30;;;13.60;99.90;;;;;;5119572;28;20020;-69
2023/04/25 02:14:12;;;;;;;2.15;1.65;;;13.50;99.90;;;;;;5119560;28;20038;-69
2023/04/25 02:16:38;;;;;;;1.77;1.55;;;13.60;99.90;;;;;;5119436;28;20016;-69
2023/04/25 02:19:04;;;;;;;1.67;1.50;;;13.50;99.90;;;;;;5119214;28;20038;-70
2023/04/25 02:21:30;;;;;;;1.55;1.45;;;13.50;99.90;;;;;;5117258;28;20051;-69
2023/04/25 02:23:56;;;;;;;4.20;1.80;;;13.50;99.90;;;;;;5119171;28;20027;-69
2023/04/25 02:26:23;;;;;;;1.67;1.58;;;13.50;99.90;;;;;;5119492;28;20087;-70
2023/04/25 02:28:49;;;;;;;1.50;1.40;;;13.50;99.90;;;;;;5119229;28;20056;-69
2023/04/25 02:31:15;;;;;;;1.70;1.50;;;13.50;99.90;;;;;;5119446;28;20391;-70
2023/04/25 02:33:41;;;;;;;2.35;1.60;;;13.50;99.90;;;;;;5100347;28;20480;-69
2023/04/25 02:36:07;;;;;;;2.00;1.65;;;13.50;99.90;;;;;;5119194;28;20045;-69
2023/04/25 02:38:33;;;;;;;1.50;1.40;;;13.50;99.90;;;;;;5119151;28;20115;-69
2023/04/25 02:40:58;;;;;;;1.92;1.50;;;13.50;99.90;;;;;;5119003;28;20031;-69
2023/04/25 02:43:24;;;;;;;1.55;1.45;;;13.50;99.90;;;;;;5119022;28;20024;-68
2023/04/25 02:45:50;;;;;;;2.13;1.58;;;13.50;99.90;;;;;;5118805;28;20498;-69
2023/04/25 02:48:16;;;;;;;1.73;1.48;;;13.50;99.90;;;;;;5118872;28;20450;-69
2023/04/25 02:50:42;;;;;;;1.60;1.50;;;13.50;99.90;;;;;;5118493;28;20090;-69
2023/04/25 02:53:07;;;;;;;1.80;1.40;;;13.60;99.90;;;;;;5118806;28;20023;-69
2023/04/25 02:55:33;;;;;;;1.42;1.33;;;13.60;99.90;;;;;;5118742;28;20030;-69
2023/04/25 02:57:59;;;;;;;1.60;1.50;;;13.60;99.90;;;;;;5118566;28;20035;-69
2023/04/25 03:00:24;;;;;;;1.50;1.40;;;13.60;99.90;;;;;;5118593;28;20047;-69
2023/04/25 03:02:50;;;;;;;2.78;1.42;;;13.60;99.90;;;;;;5118452;28;20039;-69
2023/04/25 03:05:17;;;;;;;1.30;1.20;;;13.60;99.90;;;;;;5117719;28;20019;-69
2023/04/25 03:07:43;;;;;;;2.35;1.67;;;13.60;99.90;;;;;;5118257;28;20016;-69
2023/04/25 03:10:10;;;;;;;1.40;1.30;;;13.60;99.90;;;;;;5118919;28;20022;-69
2023/04/25 03:12:35;;;;;;;1.63;1.52;;;13.60;99.90;;;;;;5100174;28;20051;-69
2023/04/25 03:15:01;;;;;;;2.05;1.60;;;13.60;99.90;;;;;;5100206;28;20058;-69
2023/04/25 03:17:27;;;;;;;1.63;1.52;;;13.60;99.90;;;;;;5118309;28;20020;-69
2023/04/25 03:19:53;;;;;;;1.70;1.60;;;13.60;99.90;;;;;;5117305;28;20096;-69
2023/04/25 03:22:18;;;;;;;2.13;1.60;;;13.60;99.90;;;;;;5118270;28;20106;-69
2023/04/25 03:24:44;;;;;;;1.60;1.50;;;13.60;99.90;;;;;;5118495;28;20023;-70
2023/04/25 03:27:10;;;;;;;1.70;1.60;;;13.50;99.90;;;;;;5118080;28;20016;-69
2023/04/25 03:29:36;;;;;;;1.50;1.40;;;13.50;99.90;;;;;;5118400;28;20379;-69
2023/04/25 03:32:01;;;;;;;2.10;1.40;;;13.40;99.90;;;;;;5099711;28;20027;-69
2023/04/25 03:34:27;;;;;;;1.60;1.50;;;13.40;99.90;;;;;;5118007;28;20031;-69
2023/04/25 03:36:53;;;;;;;1.40;1.30;;;13.40;99.90;;;;;;5099654;28;20078;-69
2023/04/25 03:39:19;;;;;;;1.63;1.52;;;13.40;99.90;;;;;;5118319;28;20031;-69
2023/04/25 03:41:44;;;;;;;1.75;1.40;;;13.40;99.90;;;;;;5099673;28;20038;-69
2023/04/25 03:44:10;;;;;;;1.30;1.20;;;13.40;99.90;;;;;;5099571;28;20023;-69
2023/04/25 03:46:35;;;;;;;2.58;1.70;;;13.40;99.90;;;;;;5117681;28;20027;-69
2023/04/25 03:49:01;;;;;;;1.58;1.48;;;13.40;99.90;;;;;;5117646;28;20020;-69
2023/04/25 03:51:27;;;;;;;2.67;1.73;;;13.40;99.90;;;;;;5117556;28;20023;-68
2023/04/25 03:53:52;;;;;;;1.95;1.75;;;13.40;99.90;;;;;;5118051;28;20012;-69
2023/04/25 03:56:18;;;;;;;3.28;1.73;;;13.40;99.90;;;;;;5117393;28;20027;-69
2023/04/25 03:58:44;;;;;;;2.17;1.58;;;13.40;99.90;;;;;;5117890;28;20022;-69
2023/04/25 04:01:10;;;;;;;2.15;1.80;;;13.40;99.90;;;;;;5117330;28;20032;-68
2023/04/25 04:03:36;;;;;;;1.90;1.70;;;13.40;99.90;;;;;;5117606;28;20035;-69
2023/04/25 04:06:03;;;;;;;2.20;1.80;;;13.40;99.90;;;;;;5117384;28;20020;-69
2023/04/25 04:08:30;;;;;;;1.55;1.45;;;13.50;99.90;;;;;;5117668;28;20034;-69
2023/04/25 04:10:57;;;;;;;1.60;1.50;;;13.50;99.90;;;;;;5117342;28;20024;-69
2023/04/25 04:13:22;;;;;;;1.60;1.50;;;13.50;99.90;;;;;;5117738;28;20019;-69
2023/04/25 04:15:48;;;;;;;1.60;1.50;;;13.50;99.90;;;;;;5117374;28;20027;-69
2023/04/25 04:18:13;;;;;;;3.03;1.45;;;13.50;99.90;;;;;;5099178;28;20028;-69
2023/04/25 04:20:39;;;;;;;3.83;2.10;;;13.50;99.90;;;;;;5116969;28;20055;-69
2023/04/25 04:23:05;;;;;;;1.60;1.50;;;13.50;99.90;;;;;;5117489;28;20036;-69
2023/04/25 04:25:31;;;;;;;1.50;1.40;;;13.50;99.90;;;;;;5117080;28;20077;-69
2023/04/25 04:27:57;;;;;;;1.83;1.73;;;13.50;99.90;;;;;;5117448;28;20028;-69
2023/04/25 04:30:29;;;;;;;4.55;1.80;;;13.50;99.90;;;;;;5099012;28;20011;-69
2023/04/25 04:32:55;;;;;;;1.60;1.50;;;13.50;99.90;;;;;;5119885;28;20050;-69
2023/04/25 04:35:22;;;;;;;1.67;1.40;;;13.60;99.90;;;;;;5107173;28;20102;-69
2023/04/25 04:37:47;;;;;;;1.83;1.60;;;13.60;99.90;;;;;;5121742;28;20069;-69
2023/04/25 04:40:17;;;;;;;1.70;1.50;;;13.60;99.90;;;;;;5121363;28;20027;-68
2023/04/25 04:42:45;;;;;;;1.55;1.45;;;13.60;99.90;;;;;;5121457;28;20035;-69
2023/04/25 04:45:11;;;;;;;1.70;1.60;;;13.60;99.90;;;;;;5121073;28;20016;-68
2023/04/25 04:47:37;;;;;;;3.03;1.60;;;13.60;99.90;;;;;;5121363;28;20019;-69
2023/04/25 04:50:10;;;;;;;2.85;1.70;;;13.70;99.90;;;;;;5120799;28;20024;-69
2023/04/25 04:52:37;;;;;;;1.90;1.70;;;13.70;99.90;;;;;;5121340;28;20024;-70
2023/04/25 04:55:05;;;;;;;1.98;1.83;;;13.70;99.90;;;;;;5121054;28;20559;-69
2023/04/25 04:57:32;;;;;;;1.65;1.55;;;13.70;99.90;;;;;;5121253;28;20053;-68
2023/04/25 04:59:59;;;;;;;2.53;1.70;;;13.80;99.90;;;;;;5108088;28;20445;-69
2023/04/25 05:02:25;;;;;;;1.95;1.75;;;13.70;99.90;;;;;;5121227;28;20023;-69
2023/04/25 05:04:51;;;;;;;2.00;1.80;;;13.80;99.90;;;;;;5120766;28;20036;-69
2023/04/25 05:07:17;;;;;;;2.42;1.73;;;13.80;99.90;;;;;;5120764;28;20485;-69
2023/04/25 05:09:43;;;;;;;1.88;1.70;;;13.70;99.90;;;;;;5121259;28;20016;-69
2023/04/25 05:12:09;;;;;;;2.47;1.92;;;13.70;99.90;;;;;;5120719;28;20388;-69
2023/04/25 05:14:35;;;;;;;2.22;1.80;;;13.70;99.90;;;;;;5102653;28;20038;-69
2023/04/25 05:17:00;;;;;;;2.05;1.80;;;13.70;99.90;;;;;;5102151;28;20038;-69
2023/04/25 05:19:26;;;;;;;2.72;1.80;;;13.70;99.90;;;;;;5120187;28;20839;-69
2023/04/25 05:21:52;;;;;;;2.25;1.98;;;13.70;99.90;;;;;;5120677;28;20024;-69
2023/04/25 05:24:18;;;;;;;3.90;2.03;;;13.70;99.90;;;;;;5102292;28;20070;-69
2023/04/25 05:26:43;;;;;;;2.70;2.08;;;13.70;99.90;;;;;;5120319;28;20487;-69
2023/04/25 05:29:09;;;;;;;3.75;1.73;;;13.70;99.90;;;;;;5120676;28;20467;-69
2023/04/25 05:31:36;;;;;;;2.47;1.70;;;13.70;99.90;;;;;;5120604;28;20031;-69
2023/04/25 05:34:02;;;;;;;1.85;1.70;;;13.70;99.90;;;;;;5101885;28;20047;-69
2023/04/25 05:36:28;;;;;;;1.98;1.80;;;13.70;99.90;;;;;;5120496;28;20018;-69
2023/04/25 05:38:53;;;;;;;2.45;1.83;;;13.80;99.90;;;;;;5120365;28;20095;-68
2023/04/25 05:41:20;;;;;;;1.95;1.67;;;13.80;99.90;;;;;;5120264;28;20020;-69
2023/04/25 05:43:47;;;;;;;4.65;2.03;;;13.80;99.90;;;;;;5119555;28;20027;-69
2023/04/25 05:46:13;;;;;;;3.55;2.13;;;13.80;99.90;;;;;;5120167;28;20059;-69
2023/04/25 05:48:39;;;;;;;2.22;1.80;;;13.80;99.90;;;;;;5119652;28;20094;-69
2023/04/25 05:51:05;;;;;;;3.42;2.17;;;13.90;99.90;;;;;;5100809;28;20038;-69
2023/04/25 05:53:31;;;;;;;3.13;2.00;;;13.90;99.90;;;;;;5120106;28;20408;-68
2023/04/25 05:55:56;;;;;;;2.20;1.90;;;13.90;99.90;;;;;;5101714;28;20023;-69
2023/04/25 05:58:22;;;;;;;1.95;1.75;;;13.90;99.90;;;;;;5120048;28;20397;-68
2023/04/25 06:00:48;;;;;;;3.83;2.10;;;13.90;99.90;;;;;;5101579;28;20087;-69
2023/04/25 06:03:17;;;;;;;1.92;1.60;;;14.00;99.90;;;;;;5119784;28;20491;-68
2023/04/25 06:05:42;;;;;;;2.35;1.90;;;14.00;99.90;;;;;;5101115;28;20030;-68
2023/04/25 06:08:09;;;;;;;6.97;1.90;;;14.00;99.90;;;;;;5107062;28;20099;-69
2023/04/25 06:10:35;;;;;;;1.90;1.70;;;14.10;99.90;;;;;;5119659;28;20019;-68
2023/04/25 06:13:01;;;;;;;2.10;1.90;;;14.10;99.90;;;;;;5119923;28;20020;-68
2023/04/25 06:15:27;;;;;;;2.20;2.00;;;14.00;99.90;;;;;;5119651;28;20023;-68
2023/04/25 06:17:52;;;;;;;6.65;2.20;;;14.10;99.90;;;;;;5119907;28;20094;-69
2023/04/25 06:20:22;;;;;;;3.15;2.13;;;14.10;99.90;;;;;;5100694;28;20531;-69
2023/04/25 06:22:49;;;;;;;2.50;1.90;;;14.10;99.90;;;;;;5119784;28;20024;-69
2023/04/25 06:25:14;;;;;;;3.72;1.73;;;14.10;99.90;;;;;;5119267;28;20032;-68
2023/04/25 06:27:40;;;;;;;2.80;2.00;;;14.10;99.90;;;;;;5119541;28;20031;-69
2023/04/25 06:30:07;;;;;;;2.95;1.98;;;14.10;99.90;;;;;;5100788;28;20020;-69
2023/04/25 06:32:34;;;;;;;2.30;2.10;;;14.20;99.90;;;;;;5119352;28;20016;-68
2023/04/25 06:35:00;;;;;;;2.20;1.77;;;14.20;99.90;;;;;;5100556;28;20110;-68
2023/04/25 06:37:25;;;;;;;2.00;1.80;;;14.30;99.90;;;;;;5119465;28;20061;-68
2023/04/25 06:39:51;;;;;;;3.40;1.63;;;14.30;99.90;;;;;;5100695;28;20029;-68
2023/04/25 06:42:17;;;;;;;1.95;1.60;;;14.30;99.90;;;;;;5119337;28;20080;-68
2023/04/25 06:44:42;;;;;;;2.95;2.00;;;14.40;99.90;;;;;;5116855;28;20012;-68
2023/04/25 06:47:08;;;;;;;2.03;1.80;;;14.40;99.90;;;;;;5119000;28;20012;-68
2023/04/25 06:49:34;;;;;;;1.80;1.60;;;14.50;99.90;;;;;;5118475;28;20016;-68
2023/04/25 06:52:00;;;;;;;3.50;1.90;;;14.60;99.90;;;;;;5118898;28;20016;-68
2023/04/25 06:54:27;;;;;;;2.08;1.50;;;14.60;99.90;;;;;;5117986;28;20028;-68
2023/04/25 06:56:53;;;;;;;3.38;1.83;;;14.70;99.90;;;;;;5118558;28;20023;-68
2023/04/25 06:59:19;;;;;;;3.22;1.75;;;14.80;99.90;;;;;;5118488;28;20015;-68
2023/04/25 07:01:45;;;;;;;2.40;1.88;;;14.80;99.90;;;;;;5099946;28;20035;-68
2023/04/25 07:04:10;;;;;;;3.95;1.85;;;14.80;99.90;;;;;;5118190;28;20019;-68
2023/04/25 07:06:42;;;;;;;1.70;1.60;;;14.80;99.90;;;;;;5118292;28;20027;-68
2023/04/25 07:09:10;;;;;;;3.08;1.70;;;14.80;99.90;;;;;;5100239;28;20110;-68
2023/04/25 07:11:36;;;;;;;2.15;1.92;;;14.80;99.90;;;;;;5117426;28;20024;-68
2023/04/25 07:14:02;;;;;;;4.93;2.22;;;14.80;99.90;;;;;;5117516;28;20069;-68
2023/04/25 07:16:28;;;;;;;2.33;1.80;;;14.80;99.90;;;;;;5113550;28;20035;-68
2023/04/25 07:18:54;;;;;;;2.00;1.80;;;14.80;99.90;;;;;;5111520;28;20020;-68
2023/04/25 07:21:19;;;;;;;2.38;1.80;;;14.80;99.90;;;;;;5098175;28;20047;-69
2023/04/25 07:23:45;;;;;;;2.10;1.90;;;14.70;99.90;;;;;;5099776;28;20088;-68
2023/04/25 07:26:11;;;;;;;2.67;2.00;;;14.60;99.90;;;;;;5115837;28;20028;-68
2023/04/25 07:28:36;;;;;;;4.38;1.83;;;14.60;99.90;;;;;;5118192;28;20019;-68
2023/04/25 07:31:02;;;;;;;3.72;2.10;;;14.50;99.90;;;;;;5117928;28;20506;-68
2023/04/25 07:33:28;;;;;;;1.85;1.75;;;14.60;99.90;;;;;;5117552;28;20031;-68
2023/04/25 07:35:55;;;;;;;2.05;1.90;;;14.50;99.90;;;;;;5118154;28;20034;-68
2023/04/25 07:38:21;;;;;;;3.28;2.10;;;14.50;99.90;;;;;;5117657;28;20026;-68
2023/04/25 07:40:48;;;;;;;4.80;2.20;;;14.50;99.90;;;;;;5118128;28;20032;-68
2023/04/25 07:43:16;;;;;;;4.45;1.98;;;14.50;99.90;;;;;;5117669;28;20030;-68
2023/04/25 07:45:42;;;;;;;3.50;1.98;;;14.60;99.90;;;;;;5099593;28;20058;-68
2023/04/25 07:48:08;;;;;;;3.53;2.00;;;14.60;99.90;;;;;;5117640;28;20024;-68
2023/04/25 07:50:34;;;;;;;2.30;1.90;;;14.60;99.90;;;;;;5117574;28;20060;-68
2023/04/25 07:53:00;;;;;;;2.10;1.90;;;14.60;99.90;;;;;;5099104;28;20023;-68
2023/04/25 07:55:26;;;;;;;3.70;2.10;;;14.70;99.90;;;;;;5114531;28;20034;-68
2023/04/25 07:57:51;;;;;;;3.28;1.85;;;14.70;99.90;;;;;;5115278;28;20395;-68
2023/04/25 08:00:17;;;;;;;4.30;1.85;;;14.70;99.90;;;;;;5113685;28;20110;-68
2023/04/25 08:02:43;;;;;;;3.25;1.60;;;14.70;99.90;;;;;;5115023;28;20024;-68
2023/04/25 08:05:11;;;;;;;1.83;1.60;;;14.30;99.90;;;;;;5115671;28;20035;-68
2023/04/25 08:07:38;;;;;;;1.40;1.30;;;14.20;99.90;;;;;;5113954;28;20015;-68
2023/04/25 08:10:05;;;;;;;1.40;1.25;;;14.00;99.90;;;;;;5116000;28;20391;-68
2023/04/25 08:12:31;;;;;;;1.60;1.40;;;13.80;99.90;;;;;;5114958;28;20015;-68
2023/04/25 08:14:57;;;;;;;2.40;1.50;;;13.60;99.90;;;;;;5115749;28;20403;-68
2023/04/25 08:17:22;;;;;;;2.58;1.67;;;13.60;99.90;;;;;;5116196;28;20027;-68
2023/04/25 08:19:48;;;;;;;1.83;1.50;;;13.50;99.90;;;;;;5097207;28;20058;-68
2023/04/25 08:22:14;;;;;;;2.70;1.60;;;13.40;99.90;;;;;;5114449;28;20047;-68
2023/04/25 08:24:41;;;;;;;1.60;1.50;;;13.30;99.90;;;;;;5115606;28;20036;-68
2023/04/25 08:27:07;;;;;;;1.50;1.40;;;13.30;99.90;;;;;;5115880;28;20018;-68
2023/04/25 08:29:33;;;;;;;2.20;1.50;;;13.30;99.90;;;;;;5115691;28;20043;-68
2023/04/25 08:31:59;;;;;;;2.10;1.58;;;13.40;99.90;;;;;;5114244;28;20028;-68
2023/04/25 08:34:25;;;;;;;2.78;1.70;;;13.40;99.90;;;;;;5111448;28;20079;-68
2023/04/25 08:36:51;;;;;;;2.67;1.58;;;13.40;99.90;;;;;;5116077;28;20016;-68
2023/04/25 08:39:17;;;;;;;1.70;1.60;;;13.40;99.90;;;;;;5115745;28;20046;-68
2023/04/25 08:41:44;;;;;;;1.58;1.48;;;13.30;99.90;;;;;;5112109;28;20022;-68
2023/04/25 08:44:10;;;;;;;1.80;1.70;;;13.30;99.90;;;;;;5115565;28;20508;-68
2023/04/25 08:46:40;;;;;;;2.90;1.70;;;13.30;99.90;;;;;;5115477;28;20020;-68
2023/04/25 08:49:06;;;;;;;1.80;1.70;;;13.40;99.90;;;;;;5115231;28;20383;-68
2023/04/25 08:51:33;;;;;;;2.88;1.77;;;13.40;99.90;;;;;;5114202;28;20027;-68
2023/04/25 08:54:10;;;;;;;4.82;1.95;;;13.40;99.90;;;;;;5115315;28;20026;-68
2023/04/25 08:56:36;;;;;;;1.95;1.77;;;13.30;99.90;;;;;;5115591;28;20140;-68
2023/04/25 08:59:02;;;;;;;2.88;1.85;;;13.30;99.90;;;;;;5115497;28;20076;-68
2023/04/25 09:01:28;;;;;;;3.95;1.70;;;13.40;99.90;;;;;;5113939;28;20600;-67
2023/04/25 09:03:54;;;;;;;3.50;2.30;;;13.40;99.90;;;;;;5115476;28;20024;-68
2023/04/25 09:06:21;;;;;;;2.50;1.90;;;13.40;99.90;;;;;;5114032;28;20023;-68
2023/04/25 09:08:46;;;;;;;3.20;1.80;;;13.50;99.90;;;;;;5115383;28;20036;-68
2023/04/25 09:11:13;;;;;;;2.42;1.60;;;13.50;99.90;;;;;;5112731;28;20065;-68
2023/04/25 09:13:38;;;;;;;2.13;1.90;;;13.50;99.90;;;;;;5114670;28;20027;-68
2023/04/25 09:16:04;;;;;;;2.00;1.80;;;13.50;99.90;;;;;;5111747;28;20096;-68
2023/04/25 09:18:31;;;;;;;4.47;1.83;;;13.50;99.90;;;;;;5114890;28;20050;-68
2023/04/25 09:21:11;;;;;;;3.42;1.98;;;13.60;99.90;;;;;;5118538;28;20047;-68
2023/04/25 09:23:42;;;;;;;2.60;2.07;;;13.70;99.90;;;;;;5116737;28;20032;-67
2023/04/25 09:26:09;;;;;;;2.67;1.90;;;13.80;99.90;;;;;;5118726;28;20277;-68
2023/04/25 09:28:35;;;;;;;13.38;2.90;;;13.80;99.90;;;;;;5117582;28;20028;-68
2023/04/25 09:31:01;;;;;;;4.20;2.20;;;13.90;99.90;;;;;;5119286;28;20045;-68
2023/04/25 09:33:36;;;;;;;3.65;1.83;;;13.90;99.90;;;;;;5117260;28;21897;-68
2023/04/25 09:36:05;;;;;;;3.35;1.90;;;13.90;99.90;;;;;;5115918;28;20039;-68
2023/04/25 09:38:32;;;;;;;1.30;1.20;;;14.00;99.90;;;;;;5100175;28;20032;-68
2023/04/25 09:40:58;;;;;;;2.38;1.30;;;14.00;99.90;;;;;;5119173;28;20077;-68
2023/04/25 09:43:25;;;;;;;5.90;1.30;;;13.90;99.90;;;;;;5118486;28;20024;-68
2023/04/25 09:45:53;;;;;;;2.28;1.50;;;13.90;99.90;;;;;;5118585;28;20053;-68
2023/04/25 09:48:20;;;;;;;1.52;1.42;;;13.80;99.90;;;;;;5118446;28;20024;-68
2023/04/25 09:51:07;;;;;;;2.05;1.50;;;13.90;99.90;;;;;;5118946;28;20023;-68
2023/04/25 09:53:38;;;;;;;1.40;1.30;;;13.90;99.90;;;;;;5119408;28;20137;-67
2023/04/25 09:56:05;;;;;;;;;;;14.10;99.90;;;;;;5118810;28;20072;-68
2023/04/25 09:58:31;;;;;;;1.20;1.10;;;14.30;99.90;;;;;;5096241;28;19911;-68
2023/04/25 10:01:01;;;;;;;2.00;1.35;;;14.10;99.90;;;;;;5100352;28;20023;-68
2023/04/25 10:03:27;;;;;;;4.57;1.60;;;14.10;99.90;;;;;;5117151;28;20502;-68
2023/04/25 10:05:54;;;;;;;3.33;1.40;;;13.90;99.90;;;;;;5119017;28;20031;-67
2023/04/25 10:08:20;;;;;;;1.58;1.45;;;13.80;99.90;;;;;;5118030;28;20031;-68
2023/04/25 10:10:47;;;;;;;2.90;1.42;;;13.90;99.90;;;;;;5118158;28;20012;-68
2023/04/25 10:13:14;;;;;;;2.13;1.40;;;14.00;99.90;;;;;;5116550;28;20046;-68
2023/04/25 10:15:41;;;;;;;3.50;1.63;;;14.10;99.90;;;;;;5118075;28;20038;-68
2023/04/25 10:18:07;;;;;;;2.00;1.80;;;14.10;99.90;;;;;;5117914;28;20023;-68
2023/04/25 10:20:32;;;;;;;2.00;1.40;;;14.20;99.90;;;;;;5117583;28;20584;-68
2023/04/25 10:23:10;;;;;;;5.90;1.77;;;14.20;99.90;;;;;;5098305;28;20081;-68
2023/04/25 10:25:36;;;;;;;1.40;1.30;;;14.30;99.90;;;;;;5117954;28;20023;-68
2023/04/25 10:28:03;;;;;;;1.67;1.42;;;14.30;99.90;;;;;;5117828;28;20031;-68
2023/04/25 10:30:29;;;;;;;3.88;1.60;;;14.20;99.90;;;;;;5117515;28;20020;-68
2023/04/25 10:32:56;;;;;;;2.90;1.73;;;14.20;99.90;;;;;;5116723;28;20070;-68
2023/04/25 10:35:27;;;;;;;1.98;1.60;;;14.30;99.90;;;;;;5097201;28;20058;-68
2023/04/25 10:38:10;;;;;;;1.92;1.60;;;14.40;99.90;;;;;;5117751;28;20019;-68
2023/04/25 10:40:36;;;;;;;1.50;1.40;;;14.50;99.90;;;;;;5114991;28;20028;-68
2023/04/25 10:43:37;;;;;;;3.47;1.70;;;14.60;99.90;;;;;;5113834;28;20112;-68
2023/04/25 10:46:33;;;;;;;2.25;1.40;;;14.60;99.90;;;;;;5114271;28;20513;-68
2023/04/25 10:49:01;;;;;;;3.22;1.55;;;14.70;99.90;;;;;;5113656;28;20015;-68
2023/04/25 10:51:34;;;;;;;1.40;1.30;;;14.90;99.90;;;;;;5098676;28;20028;-68
2023/04/25 10:54:02;;;;;;;1.70;1.42;;;15.10;99.90;;;;;;5113870;28;20016;-68
2023/04/25 10:56:39;;;;;;;2.83;1.60;;;15.20;99.90;;;;;;5098962;28;20541;-68
2023/04/25 10:59:08;;;;;;;1.40;1.30;;;15.30;99.90;;;;;;5114084;28;20016;-68
2023/04/25 11:01:39;;;;;;;1.88;1.50;;;15.30;99.90;;;;;;5094583;28;20020;-68
2023/04/25 11:04:05;;;;;;;1.60;1.50;;;15.20;99.90;;;;;;5116411;28;20418;-68
2023/04/25 11:06:53;;;;;;;1.73;1.63;;;15.30;99.90;;;;;;5117181;28;20024;-68
2023/04/25 11:09:19;;;;;;;6.43;2.20;;;15.20;99.90;;;;;;5115898;28;20032;-68
2023/04/25 11:11:54;;;;;;;3.30;1.55;;;15.10;99.90;;;;;;5097961;28;20026;-68
2023/04/25 11:14:20;;;;;;;1.63;1.45;;;15.10;99.90;;;;;;5116622;28;20028;-68
2023/04/25 11:16:45;;;;;;;2.90;1.98;;;14.90;99.90;;;;;;5116933;28;20019;-68
2023/04/25 11:19:11;;;;;;;2.25;1.63;;;15.00;99.90;;;;;;5115779;28;20024;-69
2023/04/25 11:21:37;;;;;;;4.40;2.05;;;15.10;99.90;;;;;;5114230;28;20019;-68
2023/04/25 11:24:03;;;;;;;4.20;1.90;;;15.10;99.90;;;;;;5116679;28;20384;-68
2023/04/25 11:26:30;;;;;;;2.10;1.45;;;15.30;99.90;;;;;;5116648;28;20026;-68
2023/04/25 11:29:02;;;;;;;1.83;1.58;;;15.40;99.90;;;;;;5116464;28;20027;-68
2023/04/25 11:31:29;;;;;;;2.13;1.50;;;15.60;99.90;;;;;;5090759;28;20423;-68
2023/04/25 11:33:58;;;;;;;1.70;1.30;;;15.60;99.90;;;;;;5097743;28;20027;-68
2023/04/25 11:36:25;;;;;;;1.73;1.50;;;15.70;99.90;;;;;;5116813;28;20471;-68
2023/04/25 11:38:53;;;;;;;1.70;1.48;;;15.90;99.90;;;;;;5116389;28;20422;-68
2023/04/25 11:41:20;;;;;;;1.73;1.38;;;16.10;99.90;;;;;;5115359;28;20055;-68
2023/04/25 11:43:46;;;;;;;2.08;1.27;;;16.20;99.90;;;;;;5116292;28;20020;-68
2023/04/25 11:46:11;;;;;;;1.92;1.33;;;16.30;99.90;;;;;;5115961;28;20115;-68
2023/04/25 11:48:41;;;;;;;1.77;1.13;;;16.10;99.90;;;;;;5116038;28;20042;-68
2023/04/25 11:51:07;;;;;;;1.25;1.15;;;16.20;99.90;;;;;;5115795;28;20084;-68
2023/04/25 11:53:33;;;;;;;1.70;1.30;;;16.40;99.90;;;;;;5113018;28;20019;-67
2023/04/25 11:55:59;;;;;;;1.63;1.25;;;16.50;99.90;;;;;;5116407;28;20039;-67
2023/04/25 11:58:26;;;;;;;1.38;1.20;;;16.50;99.90;;;;;;5115678;28;20036;-68
2023/04/25 12:00:52;;;;;;;5.00;1.60;;;16.60;99.90;;;;;;5114701;28;20499;-68
2023/04/25 12:03:18;;;;;;;1.58;1.20;;;16.70;99.90;;;;;;5113943;28;20024;-68
2023/04/25 12:05:45;;;;;;;1.70;1.27;;;16.90;99.90;;;;;;5096557;28;20510;-69
2023/04/25 12:08:16;;;;;;;2.58;1.67;;;16.80;99.90;;;;;;5115887;28;20395;-68
2023/04/25 12:10:45;;;;;;;1.63;1.30;;;16.70;99.90;;;;;;5097584;28;20054;-68
2023/04/25 12:13:22;;;;;;;3.40;1.63;;;16.50;99.90;;;;;;5097018;28;20067;-68
2023/04/25 12:15:48;;;;;;;1.67;1.50;;;16.40;99.90;;;;;;5115748;28;20027;-68
2023/04/25 12:18:14;;;;;;;3.00;1.95;;;16.20;99.90;;;;;;5115271;28;20555;-68
2023/04/25 12:20:41;;;;;;;2.53;1.30;;;16.30;99.90;;;;;;5111196;28;20101;-68
2023/04/25 12:23:07;;;;;;;1.20;1.10;;;16.50;99.90;;;;;;5114387;28;20035;-68
2023/04/25 12:25:44;;;;;;;1.55;1.30;;;16.70;99.90;;;;;;5094328;28;20028;-68
2023/04/25 12:28:24;;;;;;;1.67;1.30;;;16.80;99.90;;;;;;5113190;28;20064;-68
2023/04/25 12:30:53;;;;;;;2.38;1.50;;;16.80;99.90;;;;;;5114285;28;20012;-68
2023/04/25 12:33:18;;;;;;;1.70;1.60;;;16.70;99.90;;;;;;5114837;28;20144;-68
2023/04/25 12:35:44;;;;;;;1.92;1.50;;;16.60;99.90;;;;;;5115967;28;20485;-68
2023/04/25 12:38:10;;;;;;;3.63;1.75;;;16.70;99.90;;;;;;5115661;28;20023;-68
2023/04/25 12:40:36;;;;;;;2.22;1.67;;;16.80;99.90;;;;;;5111250;28;20070;-69
2023/04/25 12:43:01;;;;;;;1.90;1.52;;;16.80;99.90;;;;;;5112015;28;20032;-68
2023/04/25 12:45:27;;;;;;;4.25;2.50;;;16.80;99.90;;;;;;5097175;28;20066;-68